Time;durP1;ratioP1;P1;durP2;ratioP2;P2;SDS_P1;SDS_P2;PMS_P1;PMS_P2;Temp;Humidity;BMP_temperature;BMP_pressure;BME280_temperature;BME280_humidity;BME280_pressure;Samples;Min_cycle;Max_cycle;Signal;HPM_P1;HPM_P2
2022/09/03 00:00:16;;;;;;;;;12.50;9.50;;;;;23.26;49.89;100313.88;5053014;27;46991;-40
2022/09/03 00:02:47;;;;;;;;;9.25;7.50;;;;;23.22;49.83;100309.81;5072720;27;45451;-40
2022/09/03 00:05:22;;;;;;;;;9.25;9.25;;;;;23.22;49.92;100314.31;5050719;28;46359;-40
2022/09/03 00:07:56;;;;;;;;;10.25;8.50;;;;;23.20;50.30;100305.59;5074716;27;45690;-40
2022/09/03 00:10:44;;;;;;;;;12.75;10.50;;;;;23.19;49.88;100306.56;5069231;27;46381;-40
2022/09/03 00:13:14;;;;;;;;;9.00;9.00;;;;;23.19;50.39;100303.88;5055479;28;45446;-40
2022/09/03 00:15:39;;;;;;;;;6.75;6.75;;;;;23.20;50.17;100302.91;5032267;28;45707;-40
2022/09/03 00:18:09;;;;;;;;;11.00;10.50;;;;;23.19;50.35;100299.38;5073847;27;64227;-40
2022/09/03 00:21:07;;;;;;;;;11.25;9.25;;;;;23.21;50.58;100301.91;5034957;27;46086;-40
2022/09/03 00:23:38;;;;;;;;;7.75;7.75;;;;;23.20;50.28;100302.91;5043397;28;45331;-40
2022/09/03 00:26:12;;;;;;;;;11.00;8.75;;;;;23.19;50.72;100309.22;5056852;28;46291;-40
2022/09/03 00:28:43;;;;;;;;;6.25;5.75;;;;;23.18;50.50;100305.72;5072594;27;47126;-40
2022/09/03 00:31:13;;;;;;;;;11.50;10.00;;;;;23.19;51.00;100303.88;5067718;27;46169;-40
2022/09/03 00:33:41;;;;;;;;;10.25;9.75;;;;;23.19;50.87;100301.22;5076495;27;45273;-40
2022/09/03 00:36:20;;;;;;;;;10.00;9.00;;;;;23.19;50.74;100306.56;5054749;28;45330;-40
2022/09/03 00:38:45;;;;;;;;;9.00;7.75;;;;;23.17;51.18;100303.19;5046709;28;45366;-40
2022/09/03 00:41:23;;;;;;;;;10.50;10.00;;;;;23.16;50.88;100299.66;5075264;28;47085;-40
2022/09/03 00:44:05;;;;;;;;;8.50;5.75;;;;;23.16;51.19;100297.00;5084635;27;45371;-39
2022/09/03 00:46:55;;;;;;;;;9.75;8.25;;;;;23.15;51.04;100295.28;5071188;27;45383;-39
2022/09/03 00:49:36;;;;;;;;;12.00;10.00;;;;;23.13;51.05;100302.59;5066766;27;45537;-39
2022/09/03 00:52:01;;;;;;;;;10.50;8.75;;;;;23.11;51.36;100292.06;5058422;27;47081;-39
2022/09/03 00:54:39;;;;;;;;;10.75;9.25;;;;;23.09;51.12;100295.84;5072488;27;45312;-39
2022/09/03 00:57:11;;;;;;;;;8.25;8.25;;;;;23.09;51.39;100304.69;5064758;28;46018;-38
2022/09/03 01:00:00;;;;;;;;;11.50;7.75;;;;;23.08;51.33;100303.00;5059929;28;45372;-39
2022/09/03 01:02:47;;;;;;;;;10.25;7.75;;;;;23.07;51.42;100303.13;5049444;28;45545;-39
2022/09/03 01:05:48;;;;;;;;;9.00;6.25;;;;;23.05;51.19;100300.56;5051600;27;45382;-39
2022/09/03 01:08:31;;;;;;;;;8.50;7.00;;;;;23.05;51.50;100311.25;5073405;27;45386;-39
2022/09/03 01:11:19;;;;;;;;;9.00;8.50;;;;;23.05;51.23;100311.25;5058636;27;45482;-39
2022/09/03 01:14:12;;;;;;;;;9.75;8.50;;;;;23.05;51.61;100311.25;5067393;27;45485;-39
2022/09/03 01:16:47;;;;;;;;;7.25;7.25;;;;;23.03;51.60;100310.50;5074439;27;45918;-40
2022/09/03 01:19:40;;;;;;;;;8.00;7.00;;;;;23.03;51.35;100305.16;5071809;27;45583;-39
2022/09/03 01:22:46;;;;;;;;;7.25;7.25;;;;;23.05;51.56;100313.09;5068248;27;45486;-39
2022/09/03 01:25:37;;;;;;;;;8.25;7.00;;;;;23.03;51.37;100309.69;5073997;27;45883;-39
2022/09/03 01:28:41;;;;;;;;;9.50;9.00;;;;;23.00;51.67;100313.47;5059314;27;45363;-39
2022/09/03 01:31:12;;;;;;;;;10.50;10.50;;;;;22.99;51.51;100316.25;5079215;27;45533;-39
2022/09/03 01:33:43;;;;;;;;;7.75;7.75;;;;;22.99;51.28;100310.94;5071580;27;45442;-39
2022/09/03 01:36:08;;;;;;;;;8.00;6.00;;;;;22.98;51.26;100309.22;5062505;28;45528;-39
2022/09/03 01:38:47;;;;;;;;;7.33;6.33;;;;;22.97;51.38;100307.56;5063043;27;45315;-39
2022/09/03 01:44:39;;;;;;;;;9.00;7.00;;;;;22.94;51.21;100300.63;5076006;27;45466;-39
2022/09/03 01:47:18;;;;;;;;;9.50;8.00;;;;;22.93;51.37;100293.63;5076850;27;45406;-39
2022/09/03 01:49:56;;;;;;;;;10.50;7.25;;;;;22.92;51.53;100303.44;5060202;28;45548;-39
2022/09/03 01:52:53;;;;;;;;;9.00;6.50;;;;;22.93;51.44;100304.31;5056030;28;45495;-39
2022/09/03 01:56:03;;;;;;;;;7.50;7.00;;;;;22.93;51.63;100298.97;5074091;27;45490;-39
2022/09/03 01:58:36;;;;;;;;;8.50;8.25;;;;;22.94;52.03;100303.31;5014900;28;46892;-39
2022/09/03 02:01:06;;;;;;;;;7.50;7.00;;;;;22.93;51.72;100298.97;5057001;28;45497;-39
2022/09/03 02:03:35;;;;;;;;;9.00;7.00;;;;;22.93;51.57;100297.13;5052934;28;45292;-39
2022/09/03 02:06:00;;;;;;;;;7.00;5.50;;;;;22.93;51.80;100307.81;5071659;27;45524;-39
2022/09/03 02:08:25;;;;;;;;;7.00;7.00;;;;;22.92;51.52;100298.09;5076200;27;46121;-39
2022/09/03 02:10:53;;;;;;;;;9.00;6.00;;;;;22.91;51.60;100300.88;5078494;27;65622;-39
2022/09/03 02:13:28;;;;;;;;;6.00;6.00;;;;;22.88;51.75;100296.69;5068330;27;45300;-39
2022/09/03 02:15:57;;;;;;;;;8.75;6.75;;;;;22.87;52.04;100297.63;5070938;27;45442;-39
2022/09/03 02:18:32;;;;;;;;;6.50;6.00;;;;;22.84;51.46;100300.59;5052872;27;45383;-39
2022/09/03 02:20:58;;;;;;;;;5.75;5.75;;;;;22.85;51.46;100294.25;5039011;27;45338;-39
2022/09/03 02:23:24;;;;;;;;;7.00;7.00;;;;;22.84;51.93;100294.38;5058411;27;45358;-39
2022/09/03 02:25:55;;;;;;;;;6.50;6.50;;;;;22.83;51.89;100298.91;5070084;27;73197;-39
2022/09/03 02:28:21;;;;;;;;;7.00;6.25;;;;;22.80;51.74;100301.81;5074297;27;45413;-39
2022/09/03 02:30:47;;;;;;;;;5.75;4.50;;;;;22.78;52.18;100310.94;5073076;27;53480;-39
2022/09/03 02:33:12;;;;;;;;;7.00;6.50;;;;;22.74;52.27;100305.03;5075113;27;45530;-39
2022/09/03 02:35:39;;;;;;;;;5.25;5.25;;;;;22.71;52.56;100303.44;5073360;27;45291;-44
2022/09/03 02:38:11;;;;;;;;;7.25;6.25;;;;;22.67;52.12;100310.03;5051469;27;46491;-45
2022/09/03 02:40:36;;;;;;;;;10.00;7.00;;;;;22.66;52.79;100299.47;5076770;27;45224;-39
2022/09/03 02:43:05;;;;;;;;;6.00;6.00;;;;;22.66;52.49;100305.66;5075714;27;64873;-39
2022/09/03 02:45:30;;;;;;;;;6.25;6.25;;;;;22.64;52.81;100304.09;5039609;28;45433;-39
2022/09/03 02:47:58;;;;;;;;;8.25;6.00;;;;;22.64;52.66;100306.78;5076327;27;47696;-39
2022/09/03 02:50:24;;;;;;;;;8.00;6.25;;;;;22.62;52.07;100317.56;5079412;27;45539;-39
2022/09/03 02:52:50;;;;;;;;;9.00;7.50;;;;;22.57;52.57;100306.44;5072240;27;45385;-39
2022/09/03 02:55:16;;;;;;;;;7.75;5.75;;;;;22.55;53.35;100311.06;5076215;27;45317;-39
2022/09/03 02:57:41;;;;;;;;;6.50;6.50;;;;;22.54;52.64;100312.03;5073711;27;46431;-39
2022/09/03 03:00:08;;;;;;;;;10.00;7.50;;;;;22.52;52.87;100305.97;5050941;28;58257;-40
2022/09/03 03:02:33;;;;;;;;;8.50;7.50;;;;;22.50;53.57;100310.59;5072378;27;45324;-40
2022/09/03 03:04:59;;;;;;;;;7.00;7.00;;;;;22.46;53.72;100310.00;5074277;27;45558;-39
2022/09/03 03:07:25;;;;;;;;;9.00;9.00;;;;;22.45;53.81;100305.66;5072658;27;46043;-41
2022/09/03 03:09:51;;;;;;;;;8.00;6.75;;;;;22.46;53.71;100314.50;5074527;27;45396;-39
2022/09/03 03:12:16;;;;;;;;;9.00;9.00;;;;;22.45;53.71;100312.81;5077384;27;45377;-39
2022/09/03 03:14:42;;;;;;;;;7.25;7.25;;;;;22.44;53.93;100309.31;5052245;27;52769;-39
2022/09/03 03:17:08;;;;;;;;;7.50;7.50;;;;;22.44;53.56;100308.47;5074842;27;46223;-39
2022/09/03 03:19:33;;;;;;;;;9.00;8.25;;;;;22.45;54.07;100308.34;5059282;27;45284;-39
2022/09/03 03:21:58;;;;;;;;;9.50;8.75;;;;;22.45;54.00;100313.66;5071307;27;45295;-39
2022/09/03 03:24:24;;;;;;;;;9.75;6.75;;;;;22.40;54.23;100309.66;5073219;27;45608;-46
2022/09/03 03:26:49;;;;;;;;;9.75;8.75;;;;;22.41;54.12;100308.72;5070808;27;73941;-39
2022/09/03 03:29:19;;;;;;;;;10.50;8.50;;;;;22.37;54.01;100310.78;5076541;27;45422;-39
2022/09/03 03:31:44;;;;;;;;;8.50;8.50;;;;;22.36;54.44;100312.63;5071238;27;45497;-39
2022/09/03 03:34:10;;;;;;;;;11.00;8.75;;;;;22.36;54.25;100301.94;5074914;27;45602;-39
2022/09/03 03:36:35;;;;;;;;;8.50;7.25;;;;;22.39;54.85;100294.66;5065730;27;46866;-39
2022/09/03 03:39:01;;;;;;;;;9.00;8.50;;;;;22.39;54.59;100308.84;5077857;27;45276;-39
2022/09/03 03:41:32;;;;;;;;;8.25;8.25;;;;;22.39;55.23;100303.50;5073577;27;45456;-39
2022/09/03 03:44:00;;;;;;;;;9.75;7.75;;;;;22.36;54.55;100299.28;5080072;27;45405;-39
2022/09/03 03:46:29;;;;;;;;;10.25;9.25;;;;;22.36;54.57;100301.94;5059406;28;45392;-39
2022/09/03 03:48:55;;;;;;;;;11.00;8.50;;;;;22.35;55.12;100302.91;5075329;28;45586;-39
2022/09/03 03:51:20;;;;;;;;;8.00;7.00;;;;;22.34;54.90;100293.22;5069509;27;51024;-39
2022/09/03 03:53:45;;;;;;;;;12.50;10.00;;;;;22.31;54.93;100298.81;5067082;27;72787;-39
2022/09/03 03:56:13;;;;;;;;;16.75;11.00;;;;;22.27;54.68;100297.38;5073360;27;46166;-39
2022/09/03 03:58:42;;;;;;;;;12.50;8.50;;;;;22.23;55.14;100289.75;5069273;28;45655;-39
2022/09/03 04:01:13;;;;;;;;;13.50;9.75;;;;;22.21;54.92;100297.84;5068651;27;45573;-39
2022/09/03 04:03:39;;;;;;;;;7.50;7.50;;;;;22.21;55.05;100294.34;5075457;27;45294;-39
2022/09/03 04:06:05;;;;;;;;;8.75;8.50;;;;;22.19;55.80;100297.16;5071656;27;45351;-39
2022/09/03 04:08:36;;;;;;;;;14.25;10.00;;;;;22.18;55.43;100290.94;5071457;27;45366;-39
2022/09/03 04:11:03;;;;;;;;;9.50;9.00;;;;;22.19;55.66;100292.66;5073851;27;45457;-39
2022/09/03 04:13:30;;;;;;;;;11.50;9.25;;;;;22.21;55.38;100291.69;5073138;27;45328;-39
2022/09/03 04:16:14;;;;;;;;;9.25;8.00;;;;;22.22;55.56;100298.69;5052297;27;46361;-39
2022/09/03 04:18:39;;;;;;;;;10.75;9.25;;;;;22.20;55.10;100298.81;5077752;27;45786;-39
2022/09/03 04:21:08;;;;;;;;;10.25;9.00;;;;;22.15;55.56;100298.34;5079431;28;45367;-39
2022/09/03 04:23:37;;;;;;;;;9.00;8.00;;;;;22.11;56.13;100305.75;5067775;27;45510;-39
2022/09/03 04:26:04;;;;;;;;;9.50;8.75;;;;;22.09;55.48;100297.03;5047266;28;46105;-39
2022/09/03 04:28:29;;;;;;;;;12.50;9.75;;;;;22.06;56.01;100305.31;5073632;27;45640;-39
2022/09/03 04:31:06;;;;;;;;;6.50;6.50;;;;;22.02;55.72;100301.19;5072038;27;65824;-39
2022/09/03 04:33:32;;;;;;;;;13.00;10.00;;;;;21.98;55.50;100297.09;5066497;27;45388;-39
2022/09/03 04:36:05;;;;;;;;;9.00;9.00;;;;;21.95;55.84;100298.16;5073434;27;46352;-39
2022/09/03 04:38:34;;;;;;;;;9.75;8.75;;;;;21.95;56.34;100308.00;5067395;28;45460;-39
2022/09/03 04:41:00;;;;;;;;;8.00;7.00;;;;;21.92;56.73;100302.91;5051179;27;45334;-39
2022/09/03 04:43:27;;;;;;;;;13.00;12.00;;;;;21.93;56.35;100308.13;5075536;27;45641;-39
2022/09/03 04:45:57;;;;;;;;;8.75;7.75;;;;;21.96;56.53;100301.69;5070929;27;46134;-39
2022/09/03 04:48:22;;;;;;;;;11.75;8.00;;;;;21.99;56.70;100299.63;5054775;27;45479;-39
2022/09/03 04:50:47;;;;;;;;;11.50;10.00;;;;;22.01;56.40;100299.50;5078435;28;58357;-39
2022/09/03 04:53:13;;;;;;;;;15.50;10.25;;;;;22.02;56.54;100301.19;5072175;27;72794;-39
2022/09/03 04:55:38;;;;;;;;;12.00;10.75;;;;;22.04;56.38;100309.06;5072534;28;75600;-39
2022/09/03 04:58:04;;;;;;;;;11.25;10.25;;;;;22.04;56.66;100304.56;5076105;27;45337;-39
2022/09/03 05:00:29;;;;;;;;;10.75;9.25;;;;;22.06;56.72;100307.09;5074292;27;45410;-39
2022/09/03 05:02:55;;;;;;;;;11.75;10.50;;;;;22.06;56.15;100307.97;5078311;27;72191;-39
2022/09/03 05:05:20;;;;;;;;;11.25;9.50;;;;;22.06;56.51;100307.97;5072165;27;74662;-39
2022/09/03 05:07:45;;;;;;;;;13.00;9.00;;;;;22.08;56.53;100300.69;5072066;28;66481;-39
2022/09/03 05:10:15;;;;;;;;;11.50;10.50;;;;;22.08;56.17;100308.69;5069567;27;45108;-39
2022/09/03 05:12:40;;;;;;;;;11.75;9.25;;;;;22.09;56.59;100309.53;5068960;27;45388;-39
2022/09/03 05:15:06;;;;;;;;;11.50;9.25;;;;;22.11;56.64;100310.25;5069216;27;46207;-39
2022/09/03 05:17:32;;;;;;;;;8.00;8.00;;;;;22.12;56.49;100311.94;5071766;27;45929;-38
2022/09/03 05:19:57;;;;;;;;;11.75;9.75;;;;;22.13;56.71;100313.63;5069748;27;45422;-38
2022/09/03 05:22:22;;;;;;;;;10.75;9.00;;;;;22.13;56.14;100313.63;5070386;27;67697;-38
2022/09/03 05:24:48;;;;;;;;;6.50;6.50;;;;;22.13;56.48;100310.97;5073471;27;46242;-38
2022/09/03 05:27:18;;;;;;;;;9.75;9.25;;;;;22.13;56.16;100310.97;5068343;27;45696;-37
2022/09/03 05:29:44;;;;;;;;;9.25;8.75;;;;;22.11;56.36;100311.09;5069896;27;45283;-38
2022/09/03 05:32:10;;;;;;;;;10.25;9.50;;;;;22.13;56.06;100309.16;5070986;27;45348;-42
2022/09/03 05:34:35;;;;;;;;;9.25;8.00;;;;;22.13;56.62;100317.16;5071143;27;45466;-38
2022/09/03 05:37:00;;;;;;;;;11.75;10.25;;;;;22.13;56.15;100319.81;5071672;27;47325;-38
2022/09/03 05:39:25;;;;;;;;;9.75;9.75;;;;;22.11;55.85;100315.56;5076710;27;45506;-39
2022/09/03 05:41:51;;;;;;;;;10.50;9.00;;;;;22.08;56.42;100318.47;5071915;27;65693;-39
2022/09/03 05:44:17;;;;;;;;;16.00;11.50;;;;;22.07;56.45;100316.81;5071230;28;45604;-39
2022/09/03 05:46:43;;;;;;;;;13.00;9.25;;;;;22.07;56.83;100322.97;5068681;27;45574;-39
2022/09/03 05:49:10;;;;;;;;;12.50;10.00;;;;;22.09;56.17;100331.69;5066778;28;45288;-39
2022/09/03 05:51:38;;;;;;;;;11.00;9.25;;;;;22.09;56.70;100326.34;5049458;28;45324;-38
2022/09/03 05:54:04;;;;;;;;;12.00;12.00;;;;;22.10;56.35;100337.88;5069399;28;45497;-39
2022/09/03 05:56:30;;;;;;;;;9.25;9.25;;;;;22.11;56.50;100336.91;5073546;27;45522;-39
2022/09/03 05:59:00;;;;;;;;;9.00;9.00;;;;;22.12;56.57;100338.59;5069861;28;45477;-39
2022/09/03 06:01:28;;;;;;;;;13.50;10.00;;;;;22.14;56.47;100334.00;5065014;27;45388;-39
2022/09/03 06:04:01;;;;;;;;;9.25;9.00;;;;;22.15;56.67;100343.66;5075714;27;46187;-39
2022/09/03 06:06:28;;;;;;;;;10.00;8.75;;;;;22.14;56.38;100352.66;5072982;28;45343;-39
2022/09/03 06:08:56;;;;;;;;;13.25;11.00;;;;;22.11;56.81;100352.88;5072437;28;45448;-39
2022/09/03 06:11:26;;;;;;;;;10.00;9.25;;;;;22.11;56.97;100360.88;5073387;27;45529;-39
2022/09/03 06:13:53;;;;;;;;;11.75;8.25;;;;;22.10;56.52;100364.53;5059731;28;46246;-39
2022/09/03 06:16:19;;;;;;;;;11.00;10.25;;;;;22.10;56.73;100365.38;5076843;27;45706;-39
2022/09/03 06:18:44;;;;;;;;;15.75;10.00;;;;;22.09;56.80;100362.81;5076591;27;45256;-39
2022/09/03 06:21:09;;;;;;;;;16.50;10.00;;;;;22.08;56.20;100366.44;5079460;27;45419;-40
2022/09/03 06:23:35;;;;;;;;;11.50;10.75;;;;;22.02;56.50;100362.47;5052691;28;45509;-39
2022/09/03 06:26:11;;;;;;;;;7.50;7.50;;;;;21.99;56.78;100368.91;5055742;28;67522;-39
2022/09/03 06:28:39;;;;;;;;;10.50;9.00;;;;;21.99;56.82;100366.25;5075524;27;45384;-39
2022/09/03 06:31:08;;;;;;;;;30.25;15.25;;;;;22.02;56.47;100366.97;5074752;27;45480;-40
2022/09/03 06:33:35;;;;;;;;;14.25;10.00;;;;;22.02;56.60;100370.47;5071331;28;45434;-39
2022/09/03 06:36:03;;;;;;;;;14.00;11.75;;;;;22.03;56.57;100371.31;5070416;27;45885;-39
2022/09/03 06:38:30;;;;;;;;;13.75;11.25;;;;;22.05;56.39;100377.38;5074308;27;45311;-39
2022/09/03 06:41:00;;;;;;;;;11.50;10.50;;;;;22.04;56.92;100376.50;5076174;28;45581;-39
2022/09/03 06:43:27;;;;;;;;;10.75;9.50;;;;;22.05;56.80;100370.22;5054422;28;47061;-38
2022/09/03 06:45:57;;;;;;;;;12.00;10.75;;;;;22.07;56.22;100370.94;5074848;27;45726;-38
2022/09/03 06:48:23;;;;;;;;;14.50;11.25;;;;;22.07;56.40;100375.44;5071820;27;45329;-39
2022/09/03 06:51:00;;;;;;;;;12.50;11.50;;;;;22.08;56.39;100387.78;5072080;27;45494;-39
2022/09/03 06:53:27;;;;;;;;;9.00;8.25;;;;;22.10;56.35;100383.19;5056270;28;46208;-40
2022/09/03 06:55:57;;;;;;;;;13.00;11.25;;;;;22.10;56.73;100388.53;5073733;28;45843;-39
2022/09/03 06:58:24;;;;;;;;;32.25;18.25;;;;;22.09;56.68;100381.47;5072806;27;45343;-39
2022/09/03 07:00:51;;;;;;;;;31.25;14.25;;;;;22.09;56.80;100385.00;5071134;27;45513;-40
2022/09/03 07:03:17;;;;;;;;;51.75;20.50;;;;;22.10;56.94;100383.19;5077559;27;46095;-39
2022/09/03 07:05:43;;;;;;;;;26.50;13.75;;;;;22.10;56.57;100383.19;5063399;28;45676;-40
2022/09/03 07:08:09;;;;;;;;;11.00;10.00;;;;;22.12;56.17;100389.25;5077034;27;45410;-39
2022/09/03 07:10:38;;;;;;;;;13.50;12.00;;;;;22.13;56.46;100381.13;5057909;28;45312;-39
2022/09/03 07:13:05;;;;;;;;;13.00;11.50;;;;;22.17;56.63;100379.88;5072761;27;54829;-39
2022/09/03 07:15:31;;;;;;;;;11.25;10.00;;;;;22.21;56.81;100379.66;5048405;28;45477;-40
2022/09/03 07:17:57;;;;;;;;;10.75;8.00;;;;;22.26;55.82;100385.44;5061773;28;45626;-40
2022/09/03 07:20:22;;;;;;;;;13.75;11.00;;;;;22.27;56.02;100379.16;5070292;28;45446;-39
2022/09/03 07:22:47;;;;;;;;;12.25;10.25;;;;;22.30;56.05;100370.91;5051361;28;45534;-39
2022/09/03 07:25:13;;;;;;;;;9.50;7.00;;;;;22.33;55.61;100378.69;5060223;28;71087;-39
2022/09/03 07:27:38;;;;;;;;;8.00;7.50;;;;;22.35;56.06;100382.06;5075841;27;45391;-40
2022/09/03 07:30:08;;;;;;;;;9.00;9.00;;;;;22.36;55.82;100384.59;5071687;27;45398;-41
2022/09/03 07:32:35;;;;;;;;;12.50;10.50;;;;;22.39;55.98;100388.81;5042099;28;48005;-40
2022/09/03 07:35:01;;;;;;;;;11.00;9.50;;;;;22.43;55.26;100389.41;5060521;27;45357;-40
2022/09/03 07:37:26;;;;;;;;;12.25;10.00;;;;;22.43;55.29;100392.91;5071597;27;45272;-40
2022/09/03 07:39:52;;;;;;;;;11.25;9.25;;;;;22.44;55.32;100399.13;5050994;28;45501;-40
2022/09/03 07:42:17;;;;;;;;;11.75;8.25;;;;;22.47;55.47;100398.84;5061952;28;46982;-40
2022/09/03 07:44:43;;;;;;;;;14.50;11.00;;;;;22.52;55.21;100404.66;5076853;27;70170;-39
2022/09/03 07:47:08;;;;;;;;;11.00;10.25;;;;;22.57;55.24;100397.13;5071148;28;55206;-39
2022/09/03 07:49:35;;;;;;;;;24.50;15.00;;;;;22.64;55.16;100400.13;5049872;28;45655;-39
2022/09/03 07:52:01;;;;;;;;;45.00;20.00;;;;;22.68;55.16;100399.75;5073790;28;47932;-39
2022/09/03 07:54:27;;;;;;;;;13.75;11.00;;;;;22.75;55.17;100406.28;5058265;27;45341;-40
2022/09/03 07:56:52;;;;;;;;;10.00;10.00;;;;;22.79;54.45;100412.19;5079435;28;45214;-39
2022/09/03 07:59:19;;;;;;;;;11.00;9.75;;;;;22.81;54.70;100415.56;5078633;28;45478;-39
2022/09/03 08:01:44;;;;;;;;;8.25;8.25;;;;;22.88;54.61;100413.25;5079148;27;47179;-39
2022/09/03 08:04:10;;;;;;;;;8.25;7.50;;;;;22.92;54.61;100402.16;5057097;28;45276;-40
2022/09/03 08:06:36;;;;;;;;;8.75;7.50;;;;;22.96;54.53;100410.75;5079891;28;45301;-47
2022/09/03 08:09:06;;;;;;;;;12.50;8.00;;;;;23.01;54.36;100411.22;5078630;27;46103;-45
2022/09/03 08:11:35;;;;;;;;;12.00;10.50;;;;;23.05;54.25;100409.16;5071085;28;45243;-44
2022/09/03 08:14:08;;;;;;;;;10.25;8.25;;;;;23.10;54.16;100413.13;5052529;28;45720;-45
2022/09/03 08:16:46;;;;;;;;;11.50;6.75;;;;;23.17;53.75;100417.97;5072427;27;45474;-43
2022/09/03 08:19:12;;;;;;;;;11.50;9.50;;;;;23.22;54.25;100421.94;5078836;28;45456;-47
2022/09/03 08:21:40;;;;;;;;;9.25;8.00;;;;;23.28;53.86;100420.56;5076778;27;46271;-49
2022/09/03 08:24:06;;;;;;;;;9.75;7.25;;;;;23.28;53.61;100428.56;5052602;28;45749;-46
2022/09/03 08:26:33;;;;;;;;;9.25;8.00;;;;;23.34;53.22;100437.88;5075628;27;45509;-47
2022/09/03 08:28:59;;;;;;;;;8.50;7.50;;;;;23.40;53.37;100432.84;5070405;28;45463;-46
2022/09/03 08:31:26;;;;;;;;;16.25;11.00;;;;;23.47;53.09;100433.19;5077879;27;46153;-47
2022/09/03 08:33:53;;;;;;;;;9.50;9.00;;;;;23.53;52.98;100429.13;5081710;27;45397;-47
2022/09/03 08:36:21;;;;;;;;;8.00;7.25;;;;;23.56;53.03;100434.22;5077633;27;45475;-46
2022/09/03 08:38:47;;;;;;;;;9.25;7.00;;;;;23.59;52.78;100440.13;5076641;27;45386;-47
2022/09/03 08:41:19;;;;;;;;;9.75;7.25;;;;;23.60;52.47;100438.28;5049781;28;45659;-49
2022/09/03 08:44:09;;;;;;;;;8.50;7.50;;;;;23.61;52.72;100440.00;5054547;28;45421;-46
2022/09/03 08:46:54;;;;;;;;;11.00;10.25;;;;;23.61;52.53;100438.16;5065644;27;45481;-44
2022/09/03 08:49:34;;;;;;;;;17.50;15.00;;;;;23.63;52.64;100440.72;5068216;27;45305;-45
2022/09/03 08:52:03;;;;;;;;;8.75;6.25;;;;;23.65;52.71;100447.59;5058500;28;45443;-45
2022/09/03 08:54:31;;;;;;;;;9.50;7.75;;;;;23.69;52.64;100453.53;5077081;28;45462;-43
2022/09/03 08:57:00;;;;;;;;;5.00;4.25;;;;;23.73;52.66;100454.97;5066942;28;45481;-46
2022/09/03 08:59:25;;;;;;;;;7.25;7.00;;;;;23.75;52.29;100454.84;5060765;28;45509;-52
2022/09/03 09:02:09;;;;;;;;;7.50;7.00;;;;;23.78;52.17;100459.88;5069956;27;65939;-48
2022/09/03 09:04:59;;;;;;;;;8.25;7.50;;;;;23.74;52.51;100456.63;5070017;28;45442;-50
2022/09/03 09:07:45;;;;;;;;;7.25;6.00;;;;;23.75;52.47;100462.84;5073780;28;45359;-49
2022/09/03 09:10:17;;;;;;;;;6.75;5.00;;;;;23.77;52.48;100453.72;5071936;27;45396;-47
2022/09/03 09:12:57;;;;;;;;;10.50;6.75;;;;;23.83;52.09;100460.38;5078212;27;46118;-49
2022/09/03 09:15:28;;;;;;;;;11.00;9.50;;;;;23.87;51.77;100453.78;5078152;28;45755;-51
2022/09/03 09:18:15;;;;;;;;;5.50;4.00;;;;;23.88;51.70;100456.31;5077901;27;45416;-52
2022/09/03 09:20:50;;;;;;;;;4.00;4.00;;;;;23.92;52.13;100464.94;5065450;27;45379;-51
2022/09/03 09:23:39;;;;;;;;;6.75;6.25;;;;;24.00;51.78;100458.91;5053450;28;47212;-49
2022/09/03 09:26:07;;;;;;;;;6.75;4.00;;;;;24.08;51.41;100456.38;5060626;28;45380;-50
2022/09/03 09:28:36;;;;;;;;;7.50;5.75;;;;;24.16;51.59;100458.41;5060878;28;45460;-52
2022/09/03 09:31:03;;;;;;;;;10.00;6.00;;;;;24.22;51.49;100447.13;5068276;28;45207;-53
2022/09/03 09:33:30;;;;;;;;;6.00;5.75;;;;;24.29;51.33;100450.13;5041807;28;46946;-47
2022/09/03 09:35:55;;;;;;;;;5.50;4.00;;;;;24.35;51.18;100453.09;5028842;28;45523;-50
2022/09/03 09:38:32;;;;;;;;;4.75;4.00;;;;;24.42;50.84;100453.41;5076536;28;45375;-52
2022/09/03 09:41:12;;;;;;;;;4.50;4.25;;;;;24.49;51.07;100453.66;5055545;27;45339;-53
2022/09/03 09:43:39;;;;;;;;;5.00;4.75;;;;;24.58;50.63;100460.91;5058932;28;45401;-53
2022/09/03 09:46:19;;;;;;;;;6.25;4.50;;;;;24.68;50.57;100460.91;5087960;27;45851;-50
2022/09/03 09:48:51;;;;;;;;;5.25;3.50;;;;;24.78;49.99;100451.06;5075845;28;45329;-52
2022/09/03 09:51:30;;;;;;;;;5.50;3.25;;;;;24.88;49.94;100453.72;5050165;28;45297;-49
2022/09/03 09:54:18;;;;;;;;;4.50;2.50;;;;;24.94;49.69;100451.31;5080735;27;45357;-50
2022/09/03 09:56:45;;;;;;;;;4.50;3.00;;;;;24.98;49.45;100455.44;5064374;28;45492;-51
2022/09/03 09:59:13;;;;;;;;;8.00;5.00;;;;;24.99;49.33;100459.78;5082080;28;45166;-53
2022/09/03 10:01:41;;;;;;;;;4.25;3.75;;;;;25.02;49.52;100458.66;5082046;28;45470;-53
2022/09/03 10:04:21;;;;;;;;;5.00;4.75;;;;;24.98;49.51;100466.16;5063609;28;45348;-51
2022/09/03 10:06:54;;;;;;;;;9.00;5.00;;;;;24.95;49.53;100465.59;5060301;28;45870;-49
2022/09/03 10:09:25;;;;;;;;;8.25;5.50;;;;;24.94;49.57;100467.38;5057723;27;45295;-54
2022/09/03 10:12:03;;;;;;;;;8.25;6.50;;;;;24.96;50.07;100467.25;5062546;28;45614;-52
2022/09/03 10:14:40;;;;;;;;;7.25;7.00;;;;;24.99;49.90;100473.16;5071621;28;47391;-52
2022/09/03 10:17:19;;;;;;;;;5.00;4.00;;;;;25.04;49.76;100475.44;5069722;27;45499;-47
2022/09/03 10:22:53;;;;;;;;;7.00;4.25;;;;;25.15;49.57;100469.09;5076917;27;45596;-46
2022/09/03 10:25:20;;;;;;;;;6.25;4.00;;;;;25.23;49.02;100471.03;5075134;28;45512;-50
2022/09/03 10:27:45;;;;;;;;;3.00;3.00;;;;;25.30;48.83;100466.81;5057025;27;45176;-47
2022/09/03 10:30:15;;;;;;;;;5.00;4.00;;;;;25.39;48.69;100476.66;5080020;27;48827;-49
2022/09/03 10:32:44;;;;;;;;;4.00;3.75;;;;;25.44;48.43;100481.59;5056316;28;45492;-48
2022/09/03 10:35:20;;;;;;;;;5.25;4.50;;;;;25.49;48.34;100485.53;5057242;28;45829;-49
2022/09/03 10:38:07;;;;;;;;;8.50;5.25;;;;;25.52;48.09;100485.25;5076162;27;47156;-48
2022/09/03 10:40:37;;;;;;;;;7.75;5.50;;;;;25.58;48.36;100484.66;5060686;28;45342;-50
2022/09/03 10:43:22;;;;;;;;;9.00;6.00;;;;;25.64;47.95;100483.25;5053496;28;45213;-49
2022/09/03 10:45:53;;;;;;;;;3.75;3.50;;;;;25.64;48.15;100483.25;5074085;28;47000;-48
2022/09/03 10:48:29;;;;;;;;;5.25;4.00;;;;;25.61;48.06;100488.06;5074004;28;45446;-50
2022/09/03 10:51:03;;;;;;;;;6.50;5.25;;;;;25.60;47.98;100492.56;5077138;27;45448;-46
2022/09/03 10:53:53;;;;;;;;;7.75;6.00;;;;;25.63;48.17;100491.44;5080743;27;45348;-47
2022/09/03 10:56:23;;;;;;;;;7.00;6.25;;;;;25.65;48.17;100490.28;5076427;27;46001;-51
2022/09/03 10:59:17;;;;;;;;;7.50;5.00;;;;;25.70;47.43;100503.28;5079332;27;45828;-49
2022/09/03 11:01:51;;;;;;;;;4.00;3.00;;;;;25.73;47.55;100498.47;5072576;27;45446;-48
2022/09/03 11:04:16;;;;;;;;;5.75;5.00;;;;;25.74;47.56;100493.94;5052076;28;45326;-49
2022/09/03 11:06:53;;;;;;;;;6.00;3.00;;;;;25.73;47.52;100493.09;5072439;27;46259;-51
2022/09/03 11:09:23;;;;;;;;;4.25;4.00;;;;;25.76;47.19;100492.81;5041984;28;45814;-46
2022/09/03 11:11:59;;;;;;;;;3.75;3.75;;;;;25.80;46.87;100484.47;5070106;27;45359;-43
2022/09/03 11:14:52;;;;;;;;;6.00;5.00;;;;;25.77;46.92;100480.25;5076164;27;45423;-42
2022/09/03 11:17:28;;;;;;;;;4.25;3.25;;;;;25.80;46.95;100488.00;5047348;28;46316;-43
2022/09/03 11:20:03;;;;;;;;;7.75;4.00;;;;;25.75;46.98;100480.41;5080480;28;45253;-43
2022/09/03 11:22:29;;;;;;;;;5.75;5.00;;;;;25.71;46.61;100487.06;5063139;28;45351;-43
2022/09/03 11:24:58;;;;;;;;;4.25;4.25;;;;;25.69;46.70;100485.47;5071108;28;66783;-47
2022/09/03 11:27:52;;;;;;;;;7.00;4.50;;;;;25.68;46.36;100492.69;5045114;28;45400;-44
2022/09/03 11:30:48;;;;;;;;;5.00;5.00;;;;;25.68;46.66;100491.84;5083683;27;45724;-42
2022/09/03 11:33:19;;;;;;;;;6.00;4.00;;;;;25.70;46.61;100481.81;5018553;28;45312;-42
2022/09/03 11:35:44;;;;;;;;;4.50;4.00;;;;;25.76;46.65;100483.91;5044134;28;45569;-44
2022/09/03 11:38:15;;;;;;;;;5.50;5.00;;;;;25.78;46.36;100476.56;5075810;27;47057;-46
2022/09/03 11:40:55;;;;;;;;;6.75;5.75;;;;;25.83;46.53;100476.97;5067857;27;45757;-43
2022/09/03 11:43:23;;;;;;;;;4.25;4.25;;;;;25.87;45.95;100481.06;5063690;27;45441;-42